Meiou Maru — JD4206 — position and weather

sailwx.info

Track history (hours):
 
Tides and Currents Weather Stations Pressure Air Temp Water Temp Dewpoint Dewpoint Depression Visibility Wind Speed Wind Dir Waves Ship Positions

Meiou Maru

Last reported at 2017-Nov-05 21:13 UTC. Time now 2017-Nov-21 06:27 UTC.
Position N 35°41' E 139°59'.
Warning: this ship's position is 15 days out of date.

Length 65 m.

Type: Tanker. MMSI: 431009805.

Date/timePositionNaut miles runAvg speedWind from/ knotsBaromVisibWave heightAir tempDewpointWater temp
2017-Nov-05 21:13N 35°41' E 139°59'0 0.0
2017-Nov-05 20:55N 35°41' E 139°59'0 0.0
2017-Nov-05 20:17N 35°41' E 139°59'0 0.0
2017-Nov-05 19:51N 35°41' E 139°59'0 0.0
2017-Nov-05 16:49N 35°41' E 139°59'0 0.0
2017-Nov-05 13:20N 35°41' E 139°59'0 0.0
2017-Nov-05 12:59N 35°41' E 139°59'0 0.0
2017-Nov-05 12:30N 35°41' E 139°59'0 0.0
2017-Nov-05 11:54N 35°41' E 139°59'8 0.9
2017-Nov-05 02:01N 35°32' E 139°56'1 9.1
2017-Nov-05 01:55N 35°32' E 139°55'4 8.8
2017-Nov-05 01:29N 35°29' E 139°52'5 9.7
2017-Nov-05 01:00N 35°26' E 139°48'510.6
2017-Nov-05 00:30N 35°21' E 139°45'5 9.7
2017-Nov-05 00:00N 35°16' E 139°46'510.2
2017-Nov-04 23:30N 35°11' E 139°47'510.8
2017-Nov-04 23:00N 35°06' E 139°45'611.0
2017-Nov-04 22:30N 35°03' E 139°40'611.5
2017-Nov-04 22:00N 34°60' E 139°34'611.5
2017-Nov-04 21:30N 34°57' E 139°28'  
2017-Oct-30 13:54N 35°02' E 139°30'410.3
2017-Oct-30 13:29N 35°04' E 139°34'612.4
2017-Oct-30 13:00N 35°07' E 139°41'612.4
2017-Oct-30 12:30N 35°12' E 139°45'611.6
2017-Oct-30 12:00N 35°17' E 139°44'611.4
2017-Oct-30 11:30N 35°23' E 139°42'611.5
2017-Oct-30 11:00N 35°27' E 139°47'612.2
2017-Oct-30 10:30N 35°31' E 139°52'4 5.9
2017-Oct-30 09:52N 35°35' E 139°54'0 0.0
2017-Oct-30 09:23N 35°35' E 139°54'0 0.0
2017-Oct-30 08:56N 35°35' E 139°54'0 0.0
2017-Oct-30 08:27N 35°35' E 139°54'0 0.0
2017-Oct-30 07:44N 35°35' E 139°54'0 0.0
2017-Oct-30 07:30N 35°35' E 139°54'0 0.0
2017-Oct-30 06:59N 35°35' E 139°54'0 0.0
2017-Oct-30 06:29N 35°35' E 139°54'0 0.0
2017-Oct-30 06:00N 35°35' E 139°54'0 0.0
2017-Oct-30 05:29N 35°35' E 139°54'0 0.0
2017-Oct-30 04:48N 35°35' E 139°54'0 0.0
2017-Oct-30 04:22N 35°35' E 139°54'0 0.0
2017-Oct-30 03:54N 35°35' E 139°54'0 0.0
2017-Oct-30 03:30N 35°35' E 139°54'0 0.0
2017-Oct-30 03:00N 35°35' E 139°54'0 0.0
2017-Oct-30 02:31N 35°35' E 139°54'0 0.1
2017-Oct-30 02:00N 35°35' E 139°54'0 0.0
2017-Oct-30 01:29N 35°35' E 139°54'0 0.0
2017-Oct-30 00:53N 35°35' E 139°54'0 0.0
2017-Oct-30 00:30N 35°35' E 139°54'0 0.0
2017-Oct-29 23:03N 35°35' E 139°54'0 0.0
2017-Oct-29 22:49N 35°35' E 139°54'0 0.0
2017-Oct-29 22:30N 35°35' E 139°54'0 0.0
2017-Oct-29 22:00N 35°35' E 139°54'0 0.0
2017-Oct-29 15:21N 35°35' E 139°54'0 0.0
2017-Oct-29 13:16N 35°35' E 139°54'0 0.0
2017-Oct-29 12:49N 35°35' E 139°54'0 0.0
2017-Oct-29 12:20N 35°35' E 139°54'0 0.0
2017-Oct-29 11:57N 35°35' E 139°54'6 0.3
2017-Oct-28 17:05N 35°32' E 140°01'0 0.0
2017-Oct-28 16:55N 35°32' E 140°01'0 0.0
2017-Oct-28 16:26N 35°32' E 140°01'0 0.0
2017-Oct-28 15:59N 35°32' E 140°01'0 0.0
2017-Oct-28 15:04N 35°32' E 140°01'0 0.0
2017-Oct-28 14:37N 35°32' E 140°01'0 0.0
2017-Oct-28 14:17N 35°32' E 140°01'0 0.0
2017-Oct-28 14:00N 35°32' E 140°01'0 0.0
2017-Oct-28 13:30N 35°32' E 140°01'0 0.0
2017-Oct-28 12:53N 35°32' E 140°01'0 0.0
2017-Oct-28 11:31N 35°32' E 140°01'0 0.0
2017-Oct-28 11:29N 35°32' E 140°01'7 8.5
2017-Oct-28 10:38N 35°31' E 139°52'111.4
2017-Oct-28 10:30N 35°30' E 139°50'4 8.1
2017-Oct-28 10:00N 35°32' E 139°46'0 0.0
2017-Oct-28 09:30N 35°32' E 139°46'0 0.0
2017-Oct-28 09:00N 35°32' E 139°46'0 0.0
2017-Oct-28 08:30N 35°32' E 139°46'0 0.0
2017-Oct-28 08:00N 35°32' E 139°46'0 0.0
2017-Oct-28 07:30N 35°32' E 139°46'0 0.0
2017-Oct-28 07:00N 35°32' E 139°46'0 0.0
2017-Oct-28 06:30N 35°32' E 139°46'0 0.4
2017-Oct-28 06:00N 35°31' E 139°46'2 4.5
2017-Oct-28 05:30N 35°30' E 139°48'1 2.2
2017-Oct-28 05:00N 35°29' E 139°49'0 0.0
2017-Oct-28 04:30N 35°29' E 139°49'0 0.0
2017-Oct-28 04:00N 35°29' E 139°49'0 0.0
2017-Oct-28 03:30N 35°29' E 139°49'0 0.0
2017-Oct-28 03:00N 35°29' E 139°49'0 0.0
2017-Oct-28 02:30N 35°29' E 139°49'2 4.2
2017-Oct-28 02:00N 35°27' E 139°48'510.5
2017-Oct-28 01:30N 35°22' E 139°45'5 9.9
2017-Oct-28 01:00N 35°17' E 139°45'510.3
2017-Oct-28 00:30N 35°12' E 139°47'510.2
2017-Oct-28 00:00N 35°07' E 139°45'510.3
2017-Oct-27 23:30N 35°03' E 139°42'5 9.9
2017-Oct-27 23:00N 34°60' E 139°37'510.4
2017-Oct-27 22:29N 34°57' E 139°32'510.5
2017-Oct-27 22:00N 34°54' E 139°27'  
Track history (hours):
 
Tides and Currents Weather Stations Pressure Air Temp Water Temp Dewpoint Dewpoint Depression Visibility Wind Speed Wind Dir Waves Ship Positions

Meiou Maru

Last reported at 2017-Nov-05 21:13 UTC. Time now 2017-Nov-21 06:27 UTC.
Position N 35°41' E 139°59'.
Warning: this ship's position is 15 days out of date.

Length 65 m.

Type: Tanker. MMSI: 431009805.

Date/timePositionNaut miles runAvg speedWind from/ knotsBaromVisibWave heightAir tempDewpointWater temp
2017-Nov-05 21:13N 35°41' E 139°59'0 0.0
2017-Nov-05 20:55N 35°41' E 139°59'0 0.0
2017-Nov-05 20:17N 35°41' E 139°59'0 0.0
2017-Nov-05 19:51N 35°41' E 139°59'0 0.0
2017-Nov-05 16:49N 35°41' E 139°59'0 0.0
2017-Nov-05 13:20N 35°41' E 139°59'0 0.0
2017-Nov-05 12:59N 35°41' E 139°59'0 0.0
2017-Nov-05 12:30N 35°41' E 139°59'0 0.0
2017-Nov-05 11:54N 35°41' E 139°59'8 0.9
2017-Nov-05 02:01N 35°32' E 139°56'1 9.1
2017-Nov-05 01:55N 35°32' E 139°55'4 8.8
2017-Nov-05 01:29N 35°29' E 139°52'5 9.7
2017-Nov-05 01:00N 35°26' E 139°48'510.6
2017-Nov-05 00:30N 35°21' E 139°45'5 9.7
2017-Nov-05 00:00N 35°16' E 139°46'510.2
2017-Nov-04 23:30N 35°11' E 139°47'510.8
2017-Nov-04 23:00N 35°06' E 139°45'611.0
2017-Nov-04 22:30N 35°03' E 139°40'611.5
2017-Nov-04 22:00N 34°60' E 139°34'611.5
2017-Nov-04 21:30N 34°57' E 139°28'  
2017-Oct-30 13:54N 35°02' E 139°30'410.3
2017-Oct-30 13:29N 35°04' E 139°34'612.4
2017-Oct-30 13:00N 35°07' E 139°41'612.4
2017-Oct-30 12:30N 35°12' E 139°45'611.6
2017-Oct-30 12:00N 35°17' E 139°44'611.4
2017-Oct-30 11:30N 35°23' E 139°42'611.5
2017-Oct-30 11:00N 35°27' E 139°47'612.2
2017-Oct-30 10:30N 35°31' E 139°52'4 5.9
2017-Oct-30 09:52N 35°35' E 139°54'0 0.0
2017-Oct-30 09:23N 35°35' E 139°54'0 0.0
2017-Oct-30 08:56N 35°35' E 139°54'0 0.0
2017-Oct-30 08:27N 35°35' E 139°54'0 0.0
2017-Oct-30 07:44N 35°35' E 139°54'0 0.0
2017-Oct-30 07:30N 35°35' E 139°54'0 0.0
2017-Oct-30 06:59N 35°35' E 139°54'0 0.0
2017-Oct-30 06:29N 35°35' E 139°54'0 0.0
2017-Oct-30 06:00N 35°35' E 139°54'0 0.0
2017-Oct-30 05:29N 35°35' E 139°54'0 0.0
2017-Oct-30 04:48N 35°35' E 139°54'0 0.0
2017-Oct-30 04:22N 35°35' E 139°54'0 0.0
2017-Oct-30 03:54N 35°35' E 139°54'0 0.0
2017-Oct-30 03:30N 35°35' E 139°54'0 0.0
2017-Oct-30 03:00N 35°35' E 139°54'0 0.0
2017-Oct-30 02:31N 35°35' E 139°54'0 0.1
2017-Oct-30 02:00N 35°35' E 139°54'0 0.0
2017-Oct-30 01:29N 35°35' E 139°54'0 0.0
2017-Oct-30 00:53N 35°35' E 139°54'0 0.0
2017-Oct-30 00:30N 35°35' E 139°54'0 0.0
2017-Oct-29 23:03N 35°35' E 139°54'0 0.0
2017-Oct-29 22:49N 35°35' E 139°54'0 0.0
2017-Oct-29 22:30N 35°35' E 139°54'0 0.0
2017-Oct-29 22:00N 35°35' E 139°54'0 0.0
2017-Oct-29 15:21N 35°35' E 139°54'0 0.0
2017-Oct-29 13:16N 35°35' E 139°54'0 0.0
2017-Oct-29 12:49N 35°35' E 139°54'0 0.0
2017-Oct-29 12:20N 35°35' E 139°54'0 0.0
2017-Oct-29 11:57N 35°35' E 139°54'6 0.3
2017-Oct-28 17:05N 35°32' E 140°01'0 0.0
2017-Oct-28 16:55N 35°32' E 140°01'0 0.0
2017-Oct-28 16:26N 35°32' E 140°01'0 0.0
2017-Oct-28 15:59N 35°32' E 140°01'0 0.0
2017-Oct-28 15:04N 35°32' E 140°01'0 0.0
2017-Oct-28 14:37N 35°32' E 140°01'0 0.0
2017-Oct-28 14:17N 35°32' E 140°01'0 0.0
2017-Oct-28 14:00N 35°32' E 140°01'0 0.0
2017-Oct-28 13:30N 35°32' E 140°01'0 0.0
2017-Oct-28 12:53N 35°32' E 140°01'0 0.0
2017-Oct-28 11:31N 35°32' E 140°01'0 0.0
2017-Oct-28 11:29N 35°32' E 140°01'7 8.5
2017-Oct-28 10:38N 35°31' E 139°52'111.4
2017-Oct-28 10:30N 35°30' E 139°50'4 8.1
2017-Oct-28 10:00N 35°32' E 139°46'0 0.0
2017-Oct-28 09:30N 35°32' E 139°46'0 0.0
2017-Oct-28 09:00N 35°32' E 139°46'0 0.0
2017-Oct-28 08:30N 35°32' E 139°46'0 0.0
2017-Oct-28 08:00N 35°32' E 139°46'0 0.0
2017-Oct-28 07:30N 35°32' E 139°46'0 0.0
2017-Oct-28 07:00N 35°32' E 139°46'0 0.0
2017-Oct-28 06:30N 35°32' E 139°46'0 0.4
2017-Oct-28 06:00N 35°31' E 139°46'2 4.5
2017-Oct-28 05:30N 35°30' E 139°48'1 2.2
2017-Oct-28 05:00N 35°29' E 139°49'0 0.0
2017-Oct-28 04:30N 35°29' E 139°49'0 0.0
2017-Oct-28 04:00N 35°29' E 139°49'0 0.0
2017-Oct-28 03:30N 35°29' E 139°49'0 0.0
2017-Oct-28 03:00N 35°29' E 139°49'0 0.0
2017-Oct-28 02:30N 35°29' E 139°49'2 4.2
2017-Oct-28 02:00N 35°27' E 139°48'510.5
2017-Oct-28 01:30N 35°22' E 139°45'5 9.9
2017-Oct-28 01:00N 35°17' E 139°45'510.3
2017-Oct-28 00:30N 35°12' E 139°47'510.2
2017-Oct-28 00:00N 35°07' E 139°45'510.3
2017-Oct-27 23:30N 35°03' E 139°42'5 9.9
2017-Oct-27 23:00N 34°60' E 139°37'510.4
2017-Oct-27 22:29N 34°57' E 139°32'510.5
2017-Oct-27 22:00N 34°54' E 139°27'  

Dump ship's entire track history